Latest Coastal Weather Observations for Cape Willoughby

IDS60701

Issued at 12:11 pm CST Saturday 23 May 2015 (issued every 10 minutes, with the page automatically refreshed every 10 minutes)

About coastal observations | Map of coastal stations | Coastal observations for SA | Marine services | Other Formats
Station Details ID: 022803 Name: CAPE WILLOUGHBY Lat: -35.84 Lon: 138.13 Height: 55.0 m
Data from the previous 72 hours. | See also: Recent months at Cape Willoughby
Date/Time
CST
Temp

°C
Wind Pressure Rain
since 9am
mm
Weather Cloud Vis
km
Sea
Height
m
Swell
Dir
 
Speed
knots
Gust
knots
hPa Trend Height
m
Period
s
Dir
23/12:00pm 11.4 ENE 13 15 1031.2 - 0.0 - - - - - - -
23/11:30am 11.7 ENE 14 16 1031.7 - 0.0 - - - - - - -
23/11:00am 11.4 ENE 13 15 1032.2 - 0.0 - - - - - - -
23/10:30am 11.4 ENE 13 16 1032.6 - 0.0 - - - - - - -
23/10:00am 11.1 ENE 13 16 1032.6 - 0.0 - - - - - - -
23/09:30am 10.9 NE 14 17 1032.6 - 0.0 - - - - - - -
23/09:00am 10.9 NE 14 17 1032.7 - 0.0 - - - - - - -
23/08:30am 10.9 NE 14 17 1032.6 - 0.0 - - - - - - -
23/08:00am 11.0 NE 14 17 1032.3 - 0.0 - - - - - - -
23/07:30am 10.5 NE 13 16 1032.1 - 0.0 - - - - - - -
23/07:00am 10.6 NE 12 15 1031.9 - 0.0 - - - - - - -
23/06:30am 10.7 NE 12 15 1031.9 - 0.0 - - - - - - -
23/06:00am 10.9 NE 10 13 1031.8 - 0.0 - - - - - - -
23/05:30am 11.0 NE 11 14 1031.5 - 0.0 - - - - - - -
23/05:00am 11.3 ENE 8 12 1031.3 - 0.0 - - - - - - -
23/04:30am 11.3 E 11 14 1031.1 - 0.0 - - - - - - -
23/04:00am 11.2 ENE 8 11 1031.3 - 0.0 - - - - - - -
23/03:30am 11.1 E 10 14 1031.5 - 0.0 - - - - - - -
23/03:00am 11.4 E 9 13 1031.8 - 0.0 - - - - - - -
23/02:30am 11.9 E 9 12 1031.9 - 0.0 - - - - - - -
23/02:00am 11.4 E 10 13 1031.8 - 0.0 - - - - - - -
23/01:30am 11.8 E 11 15 1031.8 - 0.0 - - - - - - -
23/01:00am 12.0 ESE 11 16 1031.9 - 0.0 - - - - - - -
23/12:30am 12.1 E 11 15 1032.0 - 0.0 - - - - - - -
23/12:00am 12.0 E 11 17 1032.3 - 0.0 - - - - - - -
 
Date/Time
CST
Temp

°C
Wind Pressure Rain
since 9am
mm
Weather Cloud Vis
km
Sea
Height
m
Swell
Dir
 
Speed
knots
Gust
knots
hPa Trend Height
m
Period
s
Dir
22/11:30pm 12.1 ESE 13 17 1032.2 - 0.0 - - - - - - -
22/11:00pm 12.3 ESE 13 18 1032.1 - 0.0 - - - - - - -
22/10:30pm 12.1 ESE 12 17 1032.3 - 0.0 - - - - - - -
22/10:00pm 12.5 ESE 12 17 1032.3 - 0.0 - - - - - - -
22/09:30pm 12.8 ESE 16 19 1032.1 - 0.0 - - - - - - -
22/09:00pm 13.1 SE 13 18 1032.1 - 0.0 - - - - - - -
22/08:30pm 13.0 SE 15 18 1032.1 - 0.0 - - - - - - -
22/08:00pm 12.9 ESE 12 15 1032.2 - 0.0 - - - - - - -
22/07:30pm 12.9 SE 15 21 1031.9 - 0.0 - - - - - - -
22/07:00pm 13.2 SE 16 20 1031.7 - 0.0 - - - - - - -
22/06:30pm 13.3 ESE 17 22 1031.6 - 0.0 - - - - - - -
22/06:00pm 13.3 SE 13 18 1031.4 - 0.0 - - - - - - -
22/05:30pm 13.3 SE 15 19 1031.3 - 0.0 - - - - - - -
22/05:00pm 13.4 SE 13 16 1031.7 - 0.0 - - - - - - -
22/04:30pm 13.1 ESE 10 12 1031.9 - 0.0 - - - - - - -
22/04:00pm 13.2 SE 11 13 1031.8 - 0.0 - - - - - - -
22/03:30pm 13.4 SE 11 16 1031.6 - 0.0 - - - - - - -
22/03:00pm 13.5 SE 8 9 1031.6 - 0.0 - - - - - - -
22/02:30pm 13.6 SE 8 11 1031.7 - 0.0 - - - - - - -
22/02:00pm 13.5 SE 11 13 1031.7 - 0.0 - - - - - - -
22/01:30pm 13.5 ESE 8 11 1031.8 - 0.0 - - - - - - -
22/01:00pm 13.7 SE 9 12 1031.9 - 0.0 - - - - - - -
22/12:30pm 13.5 SE 11 14 1031.9 - 0.0 - - - - - - -
22/12:00pm 13.6 SE 14 17 1032.1 - 0.0 - - - - - - -
22/11:30am 13.9 SE 7 9 1032.6 - 0.0 - - - - - - -
22/11:00am 13.5 SSE 8 12 1032.8 - 0.0 - - - - - - -
22/10:30am 13.5 SSE 12 17 1032.7 - 0.0 - - - - - - -
22/10:00am 13.2 SE 13 16 1032.7 - 0.0 - - - - - - -
22/09:30am 12.8 ESE 8 10 1032.5 - 0.0 - - - - - - -
22/09:00am 12.7 ESE 9 12 1032.3 - 2.2 Recent precip. - - - - - -
22/08:30am 11.9 ESE 11 15 1032.0 - 2.2 - - - - - - -
22/08:00am 12.0 ESE 9 11 1031.8 - 1.6 - - - - - - -
22/07:30am 11.5 SE 17 23 1031.4 - 1.6 - - - - - - -
22/07:00am 11.5 SE 18 21 1031.0 - 1.4 - - - - - - -
22/06:30am 11.8 ESE 11 16 1030.8 - 1.4 - - - - - - -
22/06:00am 11.7 SE 14 19 1030.5 - 1.4 Recent precip. - - - - - -
22/05:30am 11.8 ESE 11 19 1030.3 - 1.4 - - - - - - -
22/05:00am 11.7 ESE 8 14 1030.1 - 1.2 - - - - - - -
22/04:30am 11.8 SE 8 13 1029.9 - 1.2 - - - - - - -
22/04:00am 11.9 ESE 14 17 1029.8 - 1.0 - - - - - - -
22/03:30am 12.1 SE 11 12 1029.8 - 1.0 - - - - - - -
22/03:00am 12.4 SSE 12 16 1029.8 - 0.8 Recent precip. - - - - - -
22/02:30am 12.4 SE 11 14 1029.8 - 0.4 - - - - - - -
22/02:00am 12.7 SSE 11 15 1029.7 - 0.2 - - - - - - -
22/01:30am 12.7 SSE 12 15 1029.6 - 0.2 - - - - - - -
22/01:00am 12.8 SSE 14 16 1029.6 - 0.2 - - - - - - -
22/12:30am 12.3 S 13 19 1029.9 - 0.2 - - - - - - -
22/12:00am 12.6 SE 14 19 1029.7 - 0.2 - - - - - - -
 
Date/Time
CST
Temp

°C
Wind Pressure Rain
since 9am
mm
Weather Cloud Vis
km
Sea
Height
m
Swell
Dir
 
Speed
knots
Gust
knots
hPa Trend Height
m
Period
s
Dir
21/11:30pm 12.8 SSE 12 15 1029.8 - 0.2 - - - - - - -
21/11:00pm 12.7 SSE 13 17 1029.7 - 0.2 - - - - - - -
21/10:30pm 12.8 SSE 11 15 1029.8 - 0.2 - - - - - - -
21/10:00pm 12.2 SSE 14 20 1029.8 - 0.2 - - - - - - -
21/09:30pm 12.4 SSE 12 17 1029.7 - 0.2 - - - - - - -
21/09:00pm 12.8 SSE 10 14 1029.7 - 0.0 - - - - - - -
21/08:30pm 12.7 S 13 17 1029.7 - 0.0 - - - - - - -
21/08:00pm 12.5 SSE 12 15 1029.5 - 0.0 - - - - - - -
21/07:30pm 12.4 S 11 18 1029.4 - 0.0 - - - - - - -
21/07:00pm 12.7 S 11 16 1029.1 - 0.0 - - - - - - -
21/06:30pm 12.6 SSE 12 16 1028.9 - 0.0 - - - - - - -
21/06:00pm 12.0 S 10 14 1028.7 - 0.0 - - - - - - -
21/05:30pm 12.9 S 12 17 1028.3 - 0.0 - - - - - - -
21/05:00pm 12.9 S 12 17 1028.0 - 0.0 - - - - - - -
21/04:30pm 13.1 S 13 16 1027.9 - 0.0 - - - - - - -
21/04:00pm 12.7 S 12 16 1027.8 - 0.0 - - - - - - -
21/03:30pm 12.8 S 13 17 1027.6 - 0.0 - - - - - - -
21/03:00pm 12.9 S 13 16 1027.6 - 0.0 - - - - - - -
21/02:30pm 12.8 S 12 17 1027.5 - 0.0 - - - - - - -
21/02:00pm 12.9 S 14 18 1027.4 - 0.0 - - - - - - -
21/01:30pm 13.1 S 12 16 1027.6 - 0.0 - - - - - - -
21/01:00pm 12.8 S 13 16 1027.8 - 0.0 - - - - - - -
21/12:30pm 12.7 S 14 18 1027.9 - 0.0 - - - - - - -
21/12:00pm 12.5 S 14 17 1028.2 - 0.0 - - - - - - -
21/11:30am 12.5 S 14 19 1028.4 - 0.0 - - - - - - -
21/11:00am 12.3 S 15 19 1028.3 - 0.0 - - - - - - -
21/10:30am 11.9 SSE 15 21 1028.5 - 0.0 - - - - - - -
21/10:00am 12.5 SSW 11 18 1028.2 - 0.0 - - - - - - -
21/09:30am 12.1 S 14 20 1028.1 - 0.0 - - - - - - -
21/09:00am 12.5 S 14 19 1027.6 - 3.6 - - - - - - -
21/08:30am 12.1 S 13 17 1027.5 - 3.6 - - - - - - -
21/08:00am 11.9 S 13 19 1027.0 - 3.6 - - - - - - -
21/07:30am 11.0 SSW 7 9 1027.0 - 3.6 - - - - - - -
21/07:00am 9.9 S 10 18 1026.9 - 3.6 - - - - - - -
21/06:30am 10.9 SSE 13 18 1026.2 - 3.6 - - - - - - -
21/06:00am 11.1 SE 14 21 1025.9 - 3.0 - - - - - - -
21/05:30am 11.5 SSE 17 21 1025.8 - 3.0 - - - - - - -
21/05:07am 11.4 S 12 21 1025.3 - 3.0 - - - - - - -
21/05:00am 11.1 SSW 7 11 1025.7 - 3.0 - - - - - - -
21/04:30am 10.5 S 17 25 1025.5 - 3.0 - - - - - - -
21/04:14am 11.3 S 15 25 1025.0 - 3.0 - - - - - - -
21/04:00am 11.3 SSE 15 21 1025.1 - 3.0 - - - - - - -
21/03:30am 11.9 S 19 24 1024.6 - 3.0 - - - - - - -
21/03:00am 12.2 SSE 15 21 1024.7 - 3.0 - - - - - - -
21/02:30am 12.0 SSE 18 26 1024.5 - 3.0 - - - - - - -
21/02:00am 12.0 SSE 16 22 1024.7 - 3.0 - - - - - - -
21/01:30am 11.8 SSE 17 22 1024.5 - 3.0 - - - - - - -
21/01:00am 12.0 SSE 16 21 1024.3 - 3.0 - - - - - - -
21/12:30am 10.6 SSE 18 26 1024.4 - 3.0 - - - - - - -
21/12:06am 11.9 SSE 16 26 1024.0 - 3.0 - - - - - - -
21/12:00am 11.9 SSE 16 21 1024.0 - 3.0 Recent precip. - - - - - -
 
Date/Time
CST
Temp

°C
Wind Pressure Rain
since 9am
mm
Weather Cloud Vis
km
Sea
Height
m
Swell
Dir
 
Speed
knots
Gust
knots
hPa Trend Height
m
Period
s
Dir
20/11:30pm 11.5 SSE 19 24 1023.9 - 2.8 - - - - - - -
20/11:00pm 10.9 SSE 19 23 1023.9 - 2.8 - - - - - - -
20/10:30pm 12.0 SSE 16 21 1023.8 - 2.8 - - - - - - -
20/10:00pm 12.0 SSE 15 19 1023.7 - 2.8 - - - - - - -
20/09:30pm 11.5 SSE 17 21 1023.6 - 2.8 - - - - - - -
20/09:00pm 11.6 SSE 15 20 1023.3 - 2.8 - - - - - - -
20/08:30pm 11.5 SSE 17 23 1023.1 - 2.8 - - - - - - -
20/08:00pm 10.8 SSE 20 25 1022.6 - 2.8 - - - - - - -
20/07:30pm 11.7 S 19 25 1022.6 - 2.8 - - - - - - -
20/07:00pm 11.1 S 16 22 1022.4 - 2.8 - - - - - - -
20/06:30pm 10.9 SSE 13 19 1022.3 - 1.2 - - - - - - -
20/06:00pm 11.6 SSW 16 24 1021.8 - 0.8 Rain - - - - - -
20/05:30pm 11.2 SSW 13 21 1021.5 - 0.6 - - - - - - -
20/05:00pm 11.8 S 18 22 1020.9 - 0.6 - - - - - - -
20/04:30pm 11.7 S 19 23 1020.7 - 0.6 - - - - - - -
20/04:24pm 11.5 S 20 23 1020.6 - 0.6 - - - - - - -
20/04:00pm 11.1 SSW 16 20 1020.7 - 0.0 - - - - - - -
20/03:30pm 11.3 S 14 19 1020.3 - 0.0 - - - - - - -
20/03:00pm 11.8 S 15 21 1019.9 - 0.0 - - - - - - -
20/02:30pm 12.2 S 12 17 1019.9 - 0.0 - - - - - - -
20/02:00pm 12.3 S 13 20 1019.6 - 0.0 - - - - - - -
20/01:30pm 12.8 SSW 10 16 1019.6 - 0.0 - - - - - - -
20/01:00pm 12.7 SSW 11 17 1019.5 - 0.0 - - - - - - -
20/12:30pm 12.6 SSW 12 16 1019.6 - 0.0 - - - - - - -

Other Formats:

Comma delimited format used in spreadsheet applications
http://www.bom.gov.au/fwo/IDS60701/IDS60701.94822.axf

JavaScript Object Notation format (JSON) in row-major order
http://www.bom.gov.au/fwo/IDS60701/IDS60701.94822.json